sensor_id;sensor_type;location;lat;lon;timestamp;temperature;humidity
61412;DHT22;47278;49.732;7.690;2024-01-10T00:00:22;-5.40;99.90
61412;DHT22;47278;49.732;7.690;2024-01-10T00:02:48;-5.50;99.90
61412;DHT22;47278;49.732;7.690;2024-01-10T00:05:14;-5.50;99.90
61412;DHT22;47278;49.732;7.690;2024-01-10T00:07:40;-5.50;99.90
61412;DHT22;47278;49.732;7.690;2024-01-10T00:10:06;-5.50;99.90
61412;DHT22;47278;49.732;7.690;2024-01-10T00:12:32;-5.60;99.90
61412;DHT22;47278;49.732;7.690;2024-01-10T00:15:02;-5.60;99.90
61412;DHT22;47278;49.732;7.690;2024-01-10T00:17:28;-5.70;99.90
61412;DHT22;47278;49.732;7.690;2024-01-10T00:19:54;-5.80;99.90
61412;DHT22;47278;49.732;7.690;2024-01-10T00:22:20;-5.70;99.90
61412;DHT22;47278;49.732;7.690;2024-01-10T00:24:46;-5.80;99.90
61412;DHT22;47278;49.732;7.690;2024-01-10T00:27:12;-5.80;99.90
61412;DHT22;47278;49.732;7.690;2024-01-10T00:29:38;-5.80;99.90
61412;DHT22;47278;49.732;7.690;2024-01-10T00:32:05;-5.90;99.90
61412;DHT22;47278;49.732;7.690;2024-01-10T00:34:30;-5.90;99.90
61412;DHT22;47278;49.732;7.690;2024-01-10T00:36:56;-5.90;99.90
61412;DHT22;47278;49.732;7.690;2024-01-10T00:39:22;-6.00;99.90
61412;DHT22;47278;49.732;7.690;2024-01-10T00:41:48;-6.00;99.90
61412;DHT22;47278;49.732;7.690;2024-01-10T00:44:14;-6.00;99.90
61412;DHT22;47278;49.732;7.690;2024-01-10T00:46:40;-5.90;99.90
61412;DHT22;47278;49.732;7.690;2024-01-10T00:49:06;-5.80;99.90
61412;DHT22;47278;49.732;7.690;2024-01-10T00:51:32;-6.00;99.90
61412;DHT22;47278;49.732;7.690;2024-01-10T00:53:58;-5.90;99.90
61412;DHT22;47278;49.732;7.690;2024-01-10T00:56:24;-6.00;99.90
61412;DHT22;47278;49.732;7.690;2024-01-10T00:58:50;-5.90;99.90
61412;DHT22;47278;49.732;7.690;2024-01-10T01:01:16;-5.90;99.90
61412;DHT22;47278;49.732;7.690;2024-01-10T01:03:42;-5.90;99.90
61412;DHT22;47278;49.732;7.690;2024-01-10T01:06:08;-6.00;99.90
61412;DHT22;47278;49.732;7.690;2024-01-10T01:08:34;-6.10;99.90
61412;DHT22;47278;49.732;7.690;2024-01-10T01:11:00;-6.00;99.90
61412;DHT22;47278;49.732;7.690;2024-01-10T01:13:26;-6.00;99.90
61412;DHT22;47278;49.732;7.690;2024-01-10T01:15:52;-6.10;99.90
61412;DHT22;47278;49.732;7.690;2024-01-10T01:18:18;-6.20;99.90
61412;DHT22;47278;49.732;7.690;2024-01-10T01:20:45;-6.20;99.90
61412;DHT22;47278;49.732;7.690;2024-01-10T01:23:10;-6.30;99.90
61412;DHT22;47278;49.732;7.690;2024-01-10T01:25:36;-6.30;99.90
61412;DHT22;47278;49.732;7.690;2024-01-10T01:28:02;-6.30;99.90
61412;DHT22;47278;49.732;7.690;2024-01-10T01:30:28;-6.30;99.90
61412;DHT22;47278;49.732;7.690;2024-01-10T01:32:53;-6.40;99.90
61412;DHT22;47278;49.732;7.690;2024-01-10T01:35:20;-6.30;99.90
61412;DHT22;47278;49.732;7.690;2024-01-10T01:37:48;-6.50;99.90
61412;DHT22;47278;49.732;7.690;2024-01-10T01:40:15;-6.40;99.90
61412;DHT22;47278;49.732;7.690;2024-01-10T01:42:40;-6.50;99.90
61412;DHT22;47278;49.732;7.690;2024-01-10T01:45:07;-6.60;99.90
61412;DHT22;47278;49.732;7.690;2024-01-10T01:47:32;-6.30;99.90
61412;DHT22;47278;49.732;7.690;2024-01-10T01:49:58;-6.50;99.90
61412;DHT22;47278;49.732;7.690;2024-01-10T01:52:24;-6.50;99.90
61412;DHT22;47278;49.732;7.690;2024-01-10T01:54:51;-6.60;99.90
61412;DHT22;47278;49.732;7.690;2024-01-10T01:57:17;-6.60;99.90
61412;DHT22;47278;49.732;7.690;2024-01-10T01:59:43;-6.50;99.90
61412;DHT22;47278;49.732;7.690;2024-01-10T02:02:09;-6.50;99.90
61412;DHT22;47278;49.732;7.690;2024-01-10T02:04:35;-6.40;99.90
61412;DHT22;47278;49.732;7.690;2024-01-10T02:07:02;-6.30;99.90
61412;DHT22;47278;49.732;7.690;2024-01-10T02:09:28;-6.40;99.90
61412;DHT22;47278;49.732;7.690;2024-01-10T02:11:55;-6.40;99.90
61412;DHT22;47278;49.732;7.690;2024-01-10T02:14:21;-6.50;99.90
61412;DHT22;47278;49.732;7.690;2024-01-10T02:16:47;-6.50;99.90
61412;DHT22;47278;49.732;7.690;2024-01-10T02:19:19;-6.40;99.90
61412;DHT22;47278;49.732;7.690;2024-01-10T02:21:45;-6.50;99.90
61412;DHT22;47278;49.732;7.690;2024-01-10T02:24:10;-6.30;99.90
61412;DHT22;47278;49.732;7.690;2024-01-10T02:26:37;-6.30;99.90
61412;DHT22;47278;49.732;7.690;2024-01-10T02:29:03;-6.30;99.90
61412;DHT22;47278;49.732;7.690;2024-01-10T02:31:29;-6.20;99.90
61412;DHT22;47278;49.732;7.690;2024-01-10T02:33:55;-6.20;99.90
61412;DHT22;47278;49.732;7.690;2024-01-10T02:36:20;-6.20;99.90
61412;DHT22;47278;49.732;7.690;2024-01-10T02:38:47;-6.10;99.90
61412;DHT22;47278;49.732;7.690;2024-01-10T02:41:13;-6.10;99.90
61412;DHT22;47278;49.732;7.690;2024-01-10T02:43:39;-6.10;99.90
61412;DHT22;47278;49.732;7.690;2024-01-10T02:46:05;-6.00;99.90
61412;DHT22;47278;49.732;7.690;2024-01-10T02:48:31;-6.00;99.90
61412;DHT22;47278;49.732;7.690;2024-01-10T02:50:56;-6.00;99.90
61412;DHT22;47278;49.732;7.690;2024-01-10T02:53:23;-6.00;99.90
61412;DHT22;47278;49.732;7.690;2024-01-10T02:55:49;-5.90;99.90
61412;DHT22;47278;49.732;7.690;2024-01-10T02:58:17;-6.00;99.90
61412;DHT22;47278;49.732;7.690;2024-01-10T03:00:43;-6.10;99.90
61412;DHT22;47278;49.732;7.690;2024-01-10T03:03:09;-5.90;99.90
61412;DHT22;47278;49.732;7.690;2024-01-10T03:05:34;-5.80;99.90
61412;DHT22;47278;49.732;7.690;2024-01-10T03:08:00;-5.80;99.90
61412;DHT22;47278;49.732;7.690;2024-01-10T03:10:27;-5.90;99.90
61412;DHT22;47278;49.732;7.690;2024-01-10T03:12:53;-6.00;99.90
61412;DHT22;47278;49.732;7.690;2024-01-10T03:15:19;-6.00;99.90
61412;DHT22;47278;49.732;7.690;2024-01-10T03:17:44;-6.10;99.90
61412;DHT22;47278;49.732;7.690;2024-01-10T03:20:11;-5.90;99.90
61412;DHT22;47278;49.732;7.690;2024-01-10T03:22:37;-5.80;99.90
61412;DHT22;47278;49.732;7.690;2024-01-10T03:25:03;-5.80;99.90
61412;DHT22;47278;49.732;7.690;2024-01-10T03:27:29;-5.70;99.90
61412;DHT22;47278;49.732;7.690;2024-01-10T03:29:55;-5.60;99.90
61412;DHT22;47278;49.732;7.690;2024-01-10T03:32:21;-5.60;99.90
61412;DHT22;47278;49.732;7.690;2024-01-10T03:34:47;-5.50;99.90
61412;DHT22;47278;49.732;7.690;2024-01-10T03:37:16;-5.40;99.90
61412;DHT22;47278;49.732;7.690;2024-01-10T03:39:42;-5.40;99.90
61412;DHT22;47278;49.732;7.690;2024-01-10T03:42:09;-5.20;99.90
61412;DHT22;47278;49.732;7.690;2024-01-10T03:44:34;-5.10;99.90
61412;DHT22;47278;49.732;7.690;2024-01-10T03:47:01;-5.10;99.90
61412;DHT22;47278;49.732;7.690;2024-01-10T03:49:27;-5.10;99.90
61412;DHT22;47278;49.732;7.690;2024-01-10T03:51:53;-5.20;99.90
61412;DHT22;47278;49.732;7.690;2024-01-10T03:54:19;-5.20;99.90
61412;DHT22;47278;49.732;7.690;2024-01-10T03:56:44;-5.20;99.90
61412;DHT22;47278;49.732;7.690;2024-01-10T03:59:10;-5.10;99.90
61412;DHT22;47278;49.732;7.690;2024-01-10T04:01:37;-5.10;99.90
61412;DHT22;47278;49.732;7.690;2024-01-10T04:04:04;-5.10;99.90
61412;DHT22;47278;49.732;7.690;2024-01-10T04:06:31;-4.90;99.90
61412;DHT22;47278;49.732;7.690;2024-01-10T04:08:57;-5.00;99.90
61412;DHT22;47278;49.732;7.690;2024-01-10T04:11:23;-5.00;99.90
61412;DHT22;47278;49.732;7.690;2024-01-10T04:13:49;-5.00;99.90
61412;DHT22;47278;49.732;7.690;2024-01-10T04:16:14;-4.90;99.90
61412;DHT22;47278;49.732;7.690;2024-01-10T04:18:40;-4.40;99.90
61412;DHT22;47278;49.732;7.690;2024-01-10T04:21:05;-4.80;99.90
61412;DHT22;47278;49.732;7.690;2024-01-10T04:23:33;-4.80;99.90
61412;DHT22;47278;49.732;7.690;2024-01-10T04:26:01;-4.70;99.90
61412;DHT22;47278;49.732;7.690;2024-01-10T04:28:28;-4.60;99.90
61412;DHT22;47278;49.732;7.690;2024-01-10T04:30:55;-4.60;99.90
61412;DHT22;47278;49.732;7.690;2024-01-10T04:33:21;-4.60;99.90
61412;DHT22;47278;49.732;7.690;2024-01-10T04:35:46;-4.60;99.90
61412;DHT22;47278;49.732;7.690;2024-01-10T04:38:13;-4.60;99.90
61412;DHT22;47278;49.732;7.690;2024-01-10T04:40:38;-4.60;99.90
61412;DHT22;47278;49.732;7.690;2024-01-10T04:43:05;-4.60;99.90
61412;DHT22;47278;49.732;7.690;2024-01-10T04:45:31;-4.60;99.90
61412;DHT22;47278;49.732;7.690;2024-01-10T04:47:57;-4.60;99.90
61412;DHT22;47278;49.732;7.690;2024-01-10T04:50:23;-4.60;99.90
61412;DHT22;47278;49.732;7.690;2024-01-10T04:52:49;-4.60;99.90
61412;DHT22;47278;49.732;7.690;2024-01-10T04:55:15;-4.60;99.90
61412;DHT22;47278;49.732;7.690;2024-01-10T04:57:41;-4.70;99.90
61412;DHT22;47278;49.732;7.690;2024-01-10T05:00:07;-4.70;99.90
61412;DHT22;47278;49.732;7.690;2024-01-10T05:02:33;-4.70;99.90
61412;DHT22;47278;49.732;7.690;2024-01-10T05:04:59;-4.80;99.90
61412;DHT22;47278;49.732;7.690;2024-01-10T05:07:25;-4.80;99.90
61412;DHT22;47278;49.732;7.690;2024-01-10T05:09:50;-4.80;99.90
61412;DHT22;47278;49.732;7.690;2024-01-10T05:12:17;-4.90;99.90
61412;DHT22;47278;49.732;7.690;2024-01-10T05:14:43;-4.90;99.90
61412;DHT22;47278;49.732;7.690;2024-01-10T05:17:09;-4.90;99.90
61412;DHT22;47278;49.732;7.690;2024-01-10T05:19:34;-4.90;99.90
61412;DHT22;47278;49.732;7.690;2024-01-10T05:22:01;-4.90;99.90
61412;DHT22;47278;49.732;7.690;2024-01-10T05:24:27;-4.90;99.90
61412;DHT22;47278;49.732;7.690;2024-01-10T05:26:53;-4.80;99.90
61412;DHT22;47278;49.732;7.690;2024-01-10T05:29:19;-4.80;99.90
61412;DHT22;47278;49.732;7.690;2024-01-10T05:31:45;-4.80;99.90
61412;DHT22;47278;49.732;7.690;2024-01-10T05:34:11;-4.70;99.90
61412;DHT22;47278;49.732;7.690;2024-01-10T05:36:38;-4.60;99.90
61412;DHT22;47278;49.732;7.690;2024-01-10T05:39:05;-4.60;99.90
61412;DHT22;47278;49.732;7.690;2024-01-10T05:41:31;-4.60;99.90
61412;DHT22;47278;49.732;7.690;2024-01-10T05:43:57;-4.60;99.90
61412;DHT22;47278;49.732;7.690;2024-01-10T05:46:22;-4.60;99.90
61412;DHT22;47278;49.732;7.690;2024-01-10T05:48:49;-4.50;99.90
61412;DHT22;47278;49.732;7.690;2024-01-10T05:51:14;-4.50;99.90
61412;DHT22;47278;49.732;7.690;2024-01-10T05:53:41;-4.50;99.90
61412;DHT22;47278;49.732;7.690;2024-01-10T05:56:06;-4.50;99.90
61412;DHT22;47278;49.732;7.690;2024-01-10T05:58:33;-4.40;99.90
61412;DHT22;47278;49.732;7.690;2024-01-10T06:00:58;-4.40;99.90
61412;DHT22;47278;49.732;7.690;2024-01-10T06:03:24;-4.40;99.90
61412;DHT22;47278;49.732;7.690;2024-01-10T06:05:50;-4.40;99.90
61412;DHT22;47278;49.732;7.690;2024-01-10T06:08:15;-4.30;99.90
61412;DHT22;47278;49.732;7.690;2024-01-10T06:10:41;-3.90;99.90
61412;DHT22;47278;49.732;7.690;2024-01-10T06:13:07;-4.30;99.90
61412;DHT22;47278;49.732;7.690;2024-01-10T06:15:33;-4.30;99.90
61412;DHT22;47278;49.732;7.690;2024-01-10T06:17:59;-4.20;99.90
61412;DHT22;47278;49.732;7.690;2024-01-10T06:20:25;-4.20;99.90
61412;DHT22;47278;49.732;7.690;2024-01-10T06:22:50;-4.20;99.90
61412;DHT22;47278;49.732;7.690;2024-01-10T06:25:17;-4.20;99.90
61412;DHT22;47278;49.732;7.690;2024-01-10T06:27:43;-4.20;99.90
61412;DHT22;47278;49.732;7.690;2024-01-10T06:30:08;-4.20;99.90
61412;DHT22;47278;49.732;7.690;2024-01-10T06:32:34;-4.40;99.90
61412;DHT22;47278;49.732;7.690;2024-01-10T06:35:00;-4.20;99.90
61412;DHT22;47278;49.732;7.690;2024-01-10T06:37:27;-4.30;99.90
61412;DHT22;47278;49.732;7.690;2024-01-10T06:39:53;-4.40;99.90
61412;DHT22;47278;49.732;7.690;2024-01-10T06:42:19;-4.40;99.90
61412;DHT22;47278;49.732;7.690;2024-01-10T06:44:44;-4.40;99.90
61412;DHT22;47278;49.732;7.690;2024-01-10T06:47:11;-4.50;99.90
61412;DHT22;47278;49.732;7.690;2024-01-10T06:49:37;-4.50;99.90
61412;DHT22;47278;49.732;7.690;2024-01-10T06:52:04;-4.50;99.90
61412;DHT22;47278;49.732;7.690;2024-01-10T06:54:32;-4.60;99.90
61412;DHT22;47278;49.732;7.690;2024-01-10T06:56:58;-4.60;99.90
61412;DHT22;47278;49.732;7.690;2024-01-10T06:59:24;-4.50;99.90
61412;DHT22;47278;49.732;7.690;2024-01-10T07:01:53;-4.60;99.90
61412;DHT22;47278;49.732;7.690;2024-01-10T07:04:18;-4.60;99.90
61412;DHT22;47278;49.732;7.690;2024-01-10T07:06:47;-4.60;99.90
61412;DHT22;47278;49.732;7.690;2024-01-10T07:09:13;-4.60;99.90
61412;DHT22;47278;49.732;7.690;2024-01-10T07:11:47;-4.50;99.90
61412;DHT22;47278;49.732;7.690;2024-01-10T07:14:13;-4.60;99.90
61412;DHT22;47278;49.732;7.690;2024-01-10T07:16:39;-4.70;99.90
61412;DHT22;47278;49.732;7.690;2024-01-10T07:19:10;-4.70;99.90
61412;DHT22;47278;49.732;7.690;2024-01-10T07:21:41;-4.70;99.90
61412;DHT22;47278;49.732;7.690;2024-01-10T07:24:07;-4.70;99.90
61412;DHT22;47278;49.732;7.690;2024-01-10T07:26:37;-4.70;99.90
61412;DHT22;47278;49.732;7.690;2024-01-10T07:29:03;-4.80;99.90
61412;DHT22;47278;49.732;7.690;2024-01-10T07:31:28;-4.80;99.90
61412;DHT22;47278;49.732;7.690;2024-01-10T07:33:55;-4.80;99.90
61412;DHT22;47278;49.732;7.690;2024-01-10T07:36:23;-4.90;99.90
61412;DHT22;47278;49.732;7.690;2024-01-10T07:38:49;-5.00;99.90
61412;DHT22;47278;49.732;7.690;2024-01-10T07:41:15;-4.90;99.90
61412;DHT22;47278;49.732;7.690;2024-01-10T07:43:41;-5.00;99.90
61412;DHT22;47278;49.732;7.690;2024-01-10T07:46:06;-4.90;99.90
61412;DHT22;47278;49.732;7.690;2024-01-10T07:48:32;-4.90;99.90
61412;DHT22;47278;49.732;7.690;2024-01-10T07:50:58;-5.00;99.90
61412;DHT22;47278;49.732;7.690;2024-01-10T07:53:25;-4.90;99.90
61412;DHT22;47278;49.732;7.690;2024-01-10T07:55:52;-4.90;99.90
61412;DHT22;47278;49.732;7.690;2024-01-10T07:58:19;-4.80;99.90
61412;DHT22;47278;49.732;7.690;2024-01-10T08:00:45;-4.70;99.90
61412;DHT22;47278;49.732;7.690;2024-01-10T08:03:11;-4.60;99.90
61412;DHT22;47278;49.732;7.690;2024-01-10T08:05:37;-4.50;99.90
61412;DHT22;47278;49.732;7.690;2024-01-10T08:08:03;-4.40;99.90
61412;DHT22;47278;49.732;7.690;2024-01-10T08:10:29;-4.30;99.90
61412;DHT22;47278;49.732;7.690;2024-01-10T08:12:55;-4.30;99.90
61412;DHT22;47278;49.732;7.690;2024-01-10T08:15:22;-4.10;99.90
61412;DHT22;47278;49.732;7.690;2024-01-10T08:17:47;-4.00;99.90
61412;DHT22;47278;49.732;7.690;2024-01-10T08:20:13;-4.00;99.90
61412;DHT22;47278;49.732;7.690;2024-01-10T08:22:40;-4.00;99.90
61412;DHT22;47278;49.732;7.690;2024-01-10T08:25:06;-4.00;99.90
61412;DHT22;47278;49.732;7.690;2024-01-10T08:27:33;-4.00;99.90
61412;DHT22;47278;49.732;7.690;2024-01-10T08:30:00;-4.00;99.90
61412;DHT22;47278;49.732;7.690;2024-01-10T08:32:25;-4.00;99.90
61412;DHT22;47278;49.732;7.690;2024-01-10T08:34:51;-3.90;99.90
61412;DHT22;47278;49.732;7.690;2024-01-10T08:37:16;-3.80;99.90
61412;DHT22;47278;49.732;7.690;2024-01-10T08:39:43;-3.80;99.90
61412;DHT22;47278;49.732;7.690;2024-01-10T08:42:09;-3.80;99.90
61412;DHT22;47278;49.732;7.690;2024-01-10T08:44:35;-3.80;99.90
61412;DHT22;47278;49.732;7.690;2024-01-10T08:47:01;-3.60;99.90
61412;DHT22;47278;49.732;7.690;2024-01-10T08:49:27;-3.50;99.90
61412;DHT22;47278;49.732;7.690;2024-01-10T08:51:53;-3.50;99.90
61412;DHT22;47278;49.732;7.690;2024-01-10T08:54:19;-3.40;99.90
61412;DHT22;47278;49.732;7.690;2024-01-10T08:56:48;-3.40;99.90
61412;DHT22;47278;49.732;7.690;2024-01-10T08:59:15;-3.30;99.90
61412;DHT22;47278;49.732;7.690;2024-01-10T09:01:41;-3.30;99.90
61412;DHT22;47278;49.732;7.690;2024-01-10T09:04:07;-3.30;99.90
61412;DHT22;47278;49.732;7.690;2024-01-10T09:06:33;-3.20;99.90
61412;DHT22;47278;49.732;7.690;2024-01-10T09:09:00;-3.00;99.90
61412;DHT22;47278;49.732;7.690;2024-01-10T09:11:27;-3.00;99.90
61412;DHT22;47278;49.732;7.690;2024-01-10T09:13:52;-3.00;99.90
61412;DHT22;47278;49.732;7.690;2024-01-10T09:16:19;-3.00;99.90
61412;DHT22;47278;49.732;7.690;2024-01-10T09:18:45;-2.90;99.90
61412;DHT22;47278;49.732;7.690;2024-01-10T09:21:11;-2.80;99.90
61412;DHT22;47278;49.732;7.690;2024-01-10T09:23:37;-2.80;99.90
61412;DHT22;47278;49.732;7.690;2024-01-10T09:26:03;-2.70;99.90
61412;DHT22;47278;49.732;7.690;2024-01-10T09:28:29;-2.70;99.90
61412;DHT22;47278;49.732;7.690;2024-01-10T09:30:55;-2.70;99.90
61412;DHT22;47278;49.732;7.690;2024-01-10T09:33:20;-2.70;99.90
61412;DHT22;47278;49.732;7.690;2024-01-10T09:35:48;-2.60;99.90
61412;DHT22;47278;49.732;7.690;2024-01-10T09:38:15;-2.60;99.90
61412;DHT22;47278;49.732;7.690;2024-01-10T09:40:42;-2.40;99.90
61412;DHT22;47278;49.732;7.690;2024-01-10T09:43:09;-2.50;99.90
61412;DHT22;47278;49.732;7.690;2024-01-10T09:45:35;-2.40;99.90
61412;DHT22;47278;49.732;7.690;2024-01-10T09:48:01;-2.50;99.90
61412;DHT22;47278;49.732;7.690;2024-01-10T09:50:28;-2.50;99.90
61412;DHT22;47278;49.732;7.690;2024-01-10T09:52:58;-2.50;99.90
61412;DHT22;47278;49.732;7.690;2024-01-10T09:55:33;-3.00;99.90
61412;DHT22;47278;49.732;7.690;2024-01-10T09:58:01;-2.40;99.90
61412;DHT22;47278;49.732;7.690;2024-01-10T10:00:26;-2.40;99.90
61412;DHT22;47278;49.732;7.690;2024-01-10T10:02:53;-2.30;99.90
61412;DHT22;47278;49.732;7.690;2024-01-10T10:05:19;-2.20;99.90
61412;DHT22;47278;49.732;7.690;2024-01-10T10:07:48;-2.20;99.90
61412;DHT22;47278;49.732;7.690;2024-01-10T10:10:13;-2.00;99.90
61412;DHT22;47278;49.732;7.690;2024-01-10T10:12:45;-1.80;99.90
61412;DHT22;47278;49.732;7.690;2024-01-10T10:15:12;-1.60;99.90
61412;DHT22;47278;49.732;7.690;2024-01-10T10:17:39;-1.40;99.90
61412;DHT22;47278;49.732;7.690;2024-01-10T10:20:12;-1.30;99.90
61412;DHT22;47278;49.732;7.690;2024-01-10T10:22:39;-1.20;99.90
61412;DHT22;47278;49.732;7.690;2024-01-10T10:25:05;-1.30;99.90
61412;DHT22;47278;49.732;7.690;2024-01-10T10:27:31;-1.30;99.90
61412;DHT22;47278;49.732;7.690;2024-01-10T10:29:57;-1.40;99.90
61412;DHT22;47278;49.732;7.690;2024-01-10T10:32:23;-1.40;99.90
61412;DHT22;47278;49.732;7.690;2024-01-10T10:34:49;-1.40;99.90
61412;DHT22;47278;49.732;7.690;2024-01-10T10:37:14;-1.20;99.90
61412;DHT22;47278;49.732;7.690;2024-01-10T10:39:40;-1.10;99.90
61412;DHT22;47278;49.732;7.690;2024-01-10T10:42:07;-1.00;99.90
61412;DHT22;47278;49.732;7.690;2024-01-10T10:44:33;-1.00;99.90
61412;DHT22;47278;49.732;7.690;2024-01-10T10:47:03;-0.90;99.90
61412;DHT22;47278;49.732;7.690;2024-01-10T10:49:31;-0.90;99.90
61412;DHT22;47278;49.732;7.690;2024-01-10T10:51:57;-0.70;99.90
61412;DHT22;47278;49.732;7.690;2024-01-10T10:54:23;-0.90;99.90
61412;DHT22;47278;49.732;7.690;2024-01-10T10:56:51;-0.80;99.90
61412;DHT22;47278;49.732;7.690;2024-01-10T10:59:17;-0.60;99.90
61412;DHT22;47278;49.732;7.690;2024-01-10T11:01:46;-0.70;99.90
61412;DHT22;47278;49.732;7.690;2024-01-10T11:04:12;-0.40;99.90
61412;DHT22;47278;49.732;7.690;2024-01-10T11:06:39;-0.30;99.90
61412;DHT22;47278;49.732;7.690;2024-01-10T11:09:06;-0.30;99.90
61412;DHT22;47278;49.732;7.690;2024-01-10T11:16:42;-0.10;99.90
61412;DHT22;47278;49.732;7.690;2024-01-10T11:24:21;0.30;99.90
61412;DHT22;47278;49.732;7.690;2024-01-10T11:26:49;0.30;99.90
61412;DHT22;47278;49.732;7.690;2024-01-10T11:29:15;0.20;99.90
61412;DHT22;47278;49.732;7.690;2024-01-10T11:31:41;0.40;99.90
61412;DHT22;47278;49.732;7.690;2024-01-10T11:34:08;0.30;99.90
61412;DHT22;47278;49.732;7.690;2024-01-10T11:36:35;0.60;99.90
61412;DHT22;47278;49.732;7.690;2024-01-10T11:39:03;0.70;99.90
61412;DHT22;47278;49.732;7.690;2024-01-10T11:41:36;0.60;99.90
61412;DHT22;47278;49.732;7.690;2024-01-10T11:46:42;0.60;99.90
61412;DHT22;47278;49.732;7.690;2024-01-10T11:49:09;0.80;99.90
61412;DHT22;47278;49.732;7.690;2024-01-10T11:51:35;1.00;99.90
61412;DHT22;47278;49.732;7.690;2024-01-10T11:54:01;1.00;99.90
61412;DHT22;47278;49.732;7.690;2024-01-10T11:56:37;1.10;99.90
61412;DHT22;47278;49.732;7.690;2024-01-10T11:59:03;1.00;99.90
61412;DHT22;47278;49.732;7.690;2024-01-10T12:01:33;1.20;99.90
61412;DHT22;47278;49.732;7.690;2024-01-10T12:03:59;1.30;99.90
61412;DHT22;47278;49.732;7.690;2024-01-10T12:06:26;1.10;99.90
61412;DHT22;47278;49.732;7.690;2024-01-10T12:08:51;1.30;99.90
61412;DHT22;47278;49.732;7.690;2024-01-10T12:11:17;1.20;99.90
61412;DHT22;47278;49.732;7.690;2024-01-10T12:13:43;1.20;99.90
61412;DHT22;47278;49.732;7.690;2024-01-10T12:16:12;1.70;99.90
61412;DHT22;47278;49.732;7.690;2024-01-10T12:18:42;1.90;99.90
61412;DHT22;47278;49.732;7.690;2024-01-10T12:21:09;2.10;99.90
61412;DHT22;47278;49.732;7.690;2024-01-10T12:23:36;1.70;99.90
61412;DHT22;47278;49.732;7.690;2024-01-10T12:26:08;1.60;99.90
61412;DHT22;47278;49.732;7.690;2024-01-10T12:28:35;1.70;99.90
61412;DHT22;47278;49.732;7.690;2024-01-10T12:31:02;1.80;99.90
61412;DHT22;47278;49.732;7.690;2024-01-10T12:33:30;1.70;99.90
61412;DHT22;47278;49.732;7.690;2024-01-10T12:36:04;1.30;99.90
61412;DHT22;47278;49.732;7.690;2024-01-10T12:38:30;1.30;99.90
61412;DHT22;47278;49.732;7.690;2024-01-10T12:40:57;1.50;99.90
61412;DHT22;47278;49.732;7.690;2024-01-10T12:43:23;1.70;99.90
61412;DHT22;47278;49.732;7.690;2024-01-10T12:46:02;1.60;99.90
61412;DHT22;47278;49.732;7.690;2024-01-10T12:48:28;1.80;99.90
61412;DHT22;47278;49.732;7.690;2024-01-10T12:50:55;1.80;99.90
61412;DHT22;47278;49.732;7.690;2024-01-10T12:53:21;1.80;99.90
61412;DHT22;47278;49.732;7.690;2024-01-10T12:55:47;1.40;99.90
61412;DHT22;47278;49.732;7.690;2024-01-10T12:58:13;1.30;99.90
61412;DHT22;47278;49.732;7.690;2024-01-10T13:00:39;1.50;99.90
61412;DHT22;47278;49.732;7.690;2024-01-10T13:03:05;1.40;99.90
61412;DHT22;47278;49.732;7.690;2024-01-10T13:05:31;1.60;99.90
61412;DHT22;47278;49.732;7.690;2024-01-10T13:07:57;2.00;99.90
61412;DHT22;47278;49.732;7.690;2024-01-10T13:10:23;1.90;99.90
61412;DHT22;47278;49.732;7.690;2024-01-10T13:12:49;1.90;99.90
61412;DHT22;47278;49.732;7.690;2024-01-10T13:15:15;1.90;99.90
61412;DHT22;47278;49.732;7.690;2024-01-10T13:17:41;1.90;99.90
61412;DHT22;47278;49.732;7.690;2024-01-10T13:20:07;1.90;99.90
61412;DHT22;47278;49.732;7.690;2024-01-10T13:22:35;1.60;99.90
61412;DHT22;47278;49.732;7.690;2024-01-10T13:25:01;1.70;99.90
61412;DHT22;47278;49.732;7.690;2024-01-10T13:27:27;2.00;99.90
61412;DHT22;47278;49.732;7.690;2024-01-10T13:29:53;1.80;99.90
61412;DHT22;47278;49.732;7.690;2024-01-10T13:32:19;1.80;99.90
61412;DHT22;47278;49.732;7.690;2024-01-10T13:34:45;1.80;99.90
61412;DHT22;47278;49.732;7.690;2024-01-10T13:37:11;1.50;99.90
61412;DHT22;47278;49.732;7.690;2024-01-10T13:39:38;4.00;99.90
61412;DHT22;47278;49.732;7.690;2024-01-10T13:42:05;1.40;99.90
61412;DHT22;47278;49.732;7.690;2024-01-10T13:44:31;1.40;99.90
61412;DHT22;47278;49.732;7.690;2024-01-10T13:46:57;1.60;99.90
61412;DHT22;47278;49.732;7.690;2024-01-10T13:49:23;1.70;99.90
61412;DHT22;47278;49.732;7.690;2024-01-10T13:51:49;1.50;99.90
61412;DHT22;47278;49.732;7.690;2024-01-10T13:54:15;1.40;99.90
61412;DHT22;47278;49.732;7.690;2024-01-10T13:56:41;1.60;99.90
61412;DHT22;47278;49.732;7.690;2024-01-10T13:59:08;1.40;99.90
61412;DHT22;47278;49.732;7.690;2024-01-10T14:01:35;1.30;99.90
61412;DHT22;47278;49.732;7.690;2024-01-10T14:04:02;1.80;99.90
61412;DHT22;47278;49.732;7.690;2024-01-10T14:06:28;2.00;99.90
61412;DHT22;47278;49.732;7.690;2024-01-10T14:08:55;1.80;99.90
61412;DHT22;47278;49.732;7.690;2024-01-10T14:11:23;1.90;99.90
61412;DHT22;47278;49.732;7.690;2024-01-10T14:13:49;1.90;99.90
61412;DHT22;47278;49.732;7.690;2024-01-10T14:16:17;2.10;99.90
61412;DHT22;47278;49.732;7.690;2024-01-10T14:18:43;1.80;99.90
61412;DHT22;47278;49.732;7.690;2024-01-10T14:21:09;1.50;99.90
61412;DHT22;47278;49.732;7.690;2024-01-10T14:23:35;1.80;99.90
61412;DHT22;47278;49.732;7.690;2024-01-10T14:26:01;1.40;99.90
61412;DHT22;47278;49.732;7.690;2024-01-10T14:28:31;0.90;99.90
61412;DHT22;47278;49.732;7.690;2024-01-10T14:30:58;0.90;99.90
61412;DHT22;47278;49.732;7.690;2024-01-10T14:33:25;1.00;99.90
61412;DHT22;47278;49.732;7.690;2024-01-10T14:35:51;0.40;99.90
61412;DHT22;47278;49.732;7.690;2024-01-10T14:38:17;0.20;99.90
61412;DHT22;47278;49.732;7.690;2024-01-10T14:40:43;0.30;99.90
61412;DHT22;47278;49.732;7.690;2024-01-10T14:43:09;0.20;99.90
61412;DHT22;47278;49.732;7.690;2024-01-10T14:45:35;0.20;99.90
61412;DHT22;47278;49.732;7.690;2024-01-10T14:48:01;0.20;99.90
61412;DHT22;47278;49.732;7.690;2024-01-10T14:50:28;0.10;99.90
61412;DHT22;47278;49.732;7.690;2024-01-10T14:52:55;0.00;99.90
61412;DHT22;47278;49.732;7.690;2024-01-10T14:55:23;0.00;99.90
61412;DHT22;47278;49.732;7.690;2024-01-10T14:57:49;-0.10;99.90
61412;DHT22;47278;49.732;7.690;2024-01-10T15:00:15;-0.20;99.90
61412;DHT22;47278;49.732;7.690;2024-01-10T15:02:41;-0.20;99.90
61412;DHT22;47278;49.732;7.690;2024-01-10T15:05:07;-0.30;99.90
61412;DHT22;47278;49.732;7.690;2024-01-10T15:07:33;-0.40;99.90
61412;DHT22;47278;49.732;7.690;2024-01-10T15:09:59;-0.40;99.90
61412;DHT22;47278;49.732;7.690;2024-01-10T15:12:28;-0.40;99.90
61412;DHT22;47278;49.732;7.690;2024-01-10T15:14:53;-0.60;99.90
61412;DHT22;47278;49.732;7.690;2024-01-10T15:17:19;-0.70;99.90
61412;DHT22;47278;49.732;7.690;2024-01-10T15:19:45;-0.80;99.90
61412;DHT22;47278;49.732;7.690;2024-01-10T15:22:11;-0.90;99.90
61412;DHT22;47278;49.732;7.690;2024-01-10T15:24:37;-1.10;99.90
61412;DHT22;47278;49.732;7.690;2024-01-10T15:27:03;-1.20;99.90
61412;DHT22;47278;49.732;7.690;2024-01-10T15:29:34;-1.20;99.90
61412;DHT22;47278;49.732;7.690;2024-01-10T15:31:59;-1.30;99.90
61412;DHT22;47278;49.732;7.690;2024-01-10T15:34:25;-1.40;99.90
61412;DHT22;47278;49.732;7.690;2024-01-10T15:36:51;-1.50;99.90
61412;DHT22;47278;49.732;7.690;2024-01-10T15:39:17;-1.60;99.90
61412;DHT22;47278;49.732;7.690;2024-01-10T15:41:46;-1.60;99.90